M19

Newport Regional Airport

Newport, Arkansas, USA
METAR KM19 250256Z AUTO 24003KT 10SM CLR 24/22 A3004 RMK AO2 SLP174 T02440217 53007
Observed Flight Rules
May-25 @ 02:56 UTC (6 minutes ago) Visual Flight Rules
Wind Visibility Clouds
240° at 3 knots 10 miles
  • Clear skies
Temperatures Readings
Current 24°C / 75°F
Dewpoint 22°C / 72°F
Humidity 89%
Altimeter 30.04" Hg
Pressure 1017.4 hPa
Elevation 73
METAR KM19 250256Z AUTO 24003KT 10SM CLR 24/22 A3004 RMK AO2 SLP174 T02440217 53007
Observed Flight Rules
May-25 @ 02:56 UTC
(6 minutes ago)
VFR
Wind Visibility
240° at 3 knots 10 miles
Clouds
  • Clear skies
Temperature Dewpoint
24°C / 75°F 22°C / 72°F
Humidity Altimeter Pressure
89% 30.04" Hg 1017.4 hPa